sensor_id;sensor_type;location;lat;lon;timestamp;P1;durP1;ratioP1;P2;durP2;ratioP2
23826;SDS011;12094;50.822;4.376;2023-03-01T00:01:42;17.15;;;10.82;;
23826;SDS011;12094;50.822;4.376;2023-03-01T00:04:09;15.20;;;9.52;;
23826;SDS011;12094;50.822;4.376;2023-03-01T00:06:42;24.65;;;12.85;;
23826;SDS011;12094;50.822;4.376;2023-03-01T00:09:13;17.60;;;10.55;;
23826;SDS011;12094;50.822;4.376;2023-03-01T00:11:41;15.18;;;10.77;;
23826;SDS011;12094;50.822;4.376;2023-03-01T00:14:10;16.17;;;10.63;;
23826;SDS011;12094;50.822;4.376;2023-03-01T00:16:39;20.48;;;10.43;;
23826;SDS011;12094;50.822;4.376;2023-03-01T00:19:18;20.83;;;10.93;;
23826;SDS011;12094;50.822;4.376;2023-03-01T00:21:48;15.95;;;10.38;;
23826;SDS011;12094;50.822;4.376;2023-03-01T00:24:16;15.88;;;10.25;;
23826;SDS011;12094;50.822;4.376;2023-03-01T00:26:43;16.92;;;9.95;;
23826;SDS011;12094;50.822;4.376;2023-03-01T00:29:10;13.05;;;9.80;;
23826;SDS011;12094;50.822;4.376;2023-03-01T00:31:42;15.32;;;10.48;;
23826;SDS011;12094;50.822;4.376;2023-03-01T00:34:09;17.70;;;10.77;;
23826;SDS011;12094;50.822;4.376;2023-03-01T00:36:36;18.40;;;10.88;;
23826;SDS011;12094;50.822;4.376;2023-03-01T00:39:10;17.58;;;10.68;;
23826;SDS011;12094;50.822;4.376;2023-03-01T00:41:40;21.33;;;11.23;;
23826;SDS011;12094;50.822;4.376;2023-03-01T00:44:09;17.95;;;10.60;;
23826;SDS011;12094;50.822;4.376;2023-03-01T00:46:44;22.25;;;10.30;;
23826;SDS011;12094;50.822;4.376;2023-03-01T00:49:14;15.32;;;10.43;;
23826;SDS011;12094;50.822;4.376;2023-03-01T00:51:43;13.73;;;9.93;;
23826;SDS011;12094;50.822;4.376;2023-03-01T00:54:12;15.18;;;10.02;;
23826;SDS011;12094;50.822;4.376;2023-03-01T00:56:40;18.20;;;10.65;;
23826;SDS011;12094;50.822;4.376;2023-03-01T00:59:08;18.30;;;10.88;;
23826;SDS011;12094;50.822;4.376;2023-03-01T01:01:35;16.23;;;10.02;;
23826;SDS011;12094;50.822;4.376;2023-03-01T01:04:04;16.17;;;9.98;;
23826;SDS011;12094;50.822;4.376;2023-03-01T01:06:33;14.32;;;9.65;;
23826;SDS011;12094;50.822;4.376;2023-03-01T01:09:04;15.05;;;10.15;;
23826;SDS011;12094;50.822;4.376;2023-03-01T01:11:34;13.98;;;10.35;;
23826;SDS011;12094;50.822;4.376;2023-03-01T01:14:04;20.02;;;10.32;;
23826;SDS011;12094;50.822;4.376;2023-03-01T01:16:33;19.08;;;10.77;;
23826;SDS011;12094;50.822;4.376;2023-03-01T01:19:03;21.25;;;10.65;;
23826;SDS011;12094;50.822;4.376;2023-03-01T01:21:31;17.90;;;10.13;;
23826;SDS011;12094;50.822;4.376;2023-03-01T01:23:58;18.40;;;10.70;;
23826;SDS011;12094;50.822;4.376;2023-03-01T01:26:27;16.15;;;10.05;;
23826;SDS011;12094;50.822;4.376;2023-03-01T01:28:57;18.13;;;10.13;;
23826;SDS011;12094;50.822;4.376;2023-03-01T01:31:26;15.13;;;10.00;;
23826;SDS011;12094;50.822;4.376;2023-03-01T01:33:57;21.55;;;10.88;;
23826;SDS011;12094;50.822;4.376;2023-03-01T01:36:25;18.58;;;10.63;;
23826;SDS011;12094;50.822;4.376;2023-03-01T01:38:56;15.13;;;9.90;;
23826;SDS011;12094;50.822;4.376;2023-03-01T01:41:26;16.45;;;10.05;;
23826;SDS011;12094;50.822;4.376;2023-03-01T01:47:12;15.65;;;10.15;;
23826;SDS011;12094;50.822;4.376;2023-03-01T01:49:39;14.90;;;10.10;;
23826;SDS011;12094;50.822;4.376;2023-03-01T01:57:39;18.65;;;10.07;;
23826;SDS011;12094;50.822;4.376;2023-03-01T02:00:11;16.15;;;9.95;;
23826;SDS011;12094;50.822;4.376;2023-03-01T02:02:42;16.38;;;9.60;;
23826;SDS011;12094;50.822;4.376;2023-03-01T02:07:58;18.75;;;10.68;;
23826;SDS011;12094;50.822;4.376;2023-03-01T02:10:29;16.63;;;10.57;;
23826;SDS011;12094;50.822;4.376;2023-03-01T02:12:59;18.92;;;10.35;;
23826;SDS011;12094;50.822;4.376;2023-03-01T02:15:27;18.45;;;10.38;;
23826;SDS011;12094;50.822;4.376;2023-03-01T02:18:00;19.48;;;9.95;;
23826;SDS011;12094;50.822;4.376;2023-03-01T02:26:07;15.57;;;9.45;;
23826;SDS011;12094;50.822;4.376;2023-03-01T02:28:45;17.08;;;9.63;;
23826;SDS011;12094;50.822;4.376;2023-03-01T02:31:16;17.05;;;9.82;;
23826;SDS011;12094;50.822;4.376;2023-03-01T02:34:04;17.77;;;10.18;;
23826;SDS011;12094;50.822;4.376;2023-03-01T02:36:37;18.92;;;10.48;;
23826;SDS011;12094;50.822;4.376;2023-03-01T02:39:08;14.88;;;10.00;;
23826;SDS011;12094;50.822;4.376;2023-03-01T02:41:49;13.98;;;9.75;;
23826;SDS011;12094;50.822;4.376;2023-03-01T02:44:19;18.50;;;9.95;;
23826;SDS011;12094;50.822;4.376;2023-03-01T02:46:50;17.73;;;10.73;;
23826;SDS011;12094;50.822;4.376;2023-03-01T02:49:27;20.48;;;11.45;;
23826;SDS011;12094;50.822;4.376;2023-03-01T02:55:08;19.25;;;11.23;;
23826;SDS011;12094;50.822;4.376;2023-03-01T02:57:43;16.98;;;10.82;;
23826;SDS011;12094;50.822;4.376;2023-03-01T03:00:13;15.68;;;10.43;;
23826;SDS011;12094;50.822;4.376;2023-03-01T03:02:52;18.90;;;10.30;;
23826;SDS011;12094;50.822;4.376;2023-03-01T03:05:27;16.80;;;10.40;;
23826;SDS011;12094;50.822;4.376;2023-03-01T03:07:57;16.98;;;10.15;;
23826;SDS011;12094;50.822;4.376;2023-03-01T03:10:29;22.23;;;10.13;;
23826;SDS011;12094;50.822;4.376;2023-03-01T03:13:03;16.42;;;10.05;;
23826;SDS011;12094;50.822;4.376;2023-03-01T03:15:37;21.15;;;10.80;;
23826;SDS011;12094;50.822;4.376;2023-03-01T03:18:10;18.58;;;10.82;;
23826;SDS011;12094;50.822;4.376;2023-03-01T03:20:39;18.77;;;10.70;;
23826;SDS011;12094;50.822;4.376;2023-03-01T03:23:08;18.20;;;10.30;;
23826;SDS011;12094;50.822;4.376;2023-03-01T03:25:35;20.40;;;10.98;;
23826;SDS011;12094;50.822;4.376;2023-03-01T03:28:04;15.93;;;10.23;;
23826;SDS011;12094;50.822;4.376;2023-03-01T03:30:40;18.02;;;10.90;;
23826;SDS011;12094;50.822;4.376;2023-03-01T03:33:09;17.65;;;10.65;;
23826;SDS011;12094;50.822;4.376;2023-03-01T03:35:40;17.40;;;10.77;;
23826;SDS011;12094;50.822;4.376;2023-03-01T03:38:09;18.42;;;10.60;;
23826;SDS011;12094;50.822;4.376;2023-03-01T03:40:47;16.65;;;10.07;;
23826;SDS011;12094;50.822;4.376;2023-03-01T03:43:20;15.90;;;10.43;;
23826;SDS011;12094;50.822;4.376;2023-03-01T03:45:50;17.20;;;10.20;;
23826;SDS011;12094;50.822;4.376;2023-03-01T03:48:18;16.40;;;10.80;;
23826;SDS011;12094;50.822;4.376;2023-03-01T03:50:50;16.63;;;10.70;;
23826;SDS011;12094;50.822;4.376;2023-03-01T03:53:20;17.45;;;10.95;;
23826;SDS011;12094;50.822;4.376;2023-03-01T03:55:50;19.10;;;10.82;;
23826;SDS011;12094;50.822;4.376;2023-03-01T03:58:19;18.17;;;11.30;;
23826;SDS011;12094;50.822;4.376;2023-03-01T04:00:52;18.20;;;11.48;;
23826;SDS011;12094;50.822;4.376;2023-03-01T04:03:23;19.08;;;10.70;;
23826;SDS011;12094;50.822;4.376;2023-03-01T04:05:52;16.98;;;10.88;;
23826;SDS011;12094;50.822;4.376;2023-03-01T04:08:22;19.13;;;11.13;;
23826;SDS011;12094;50.822;4.376;2023-03-01T04:10:51;15.90;;;10.18;;
23826;SDS011;12094;50.822;4.376;2023-03-01T04:13:21;18.30;;;11.30;;
23826;SDS011;12094;50.822;4.376;2023-03-01T04:15:51;17.88;;;10.57;;
23826;SDS011;12094;50.822;4.376;2023-03-01T04:18:19;17.30;;;10.93;;
23826;SDS011;12094;50.822;4.376;2023-03-01T04:20:50;17.02;;;10.52;;
23826;SDS011;12094;50.822;4.376;2023-03-01T04:23:20;17.48;;;10.52;;
23826;SDS011;12094;50.822;4.376;2023-03-01T04:25:52;17.05;;;11.55;;
23826;SDS011;12094;50.822;4.376;2023-03-01T04:28:42;17.67;;;10.82;;
23826;SDS011;12094;50.822;4.376;2023-03-01T04:31:13;18.60;;;11.52;;
23826;SDS011;12094;50.822;4.376;2023-03-01T04:33:50;22.50;;;11.30;;
23826;SDS011;12094;50.822;4.376;2023-03-01T04:36:21;16.13;;;11.13;;
23826;SDS011;12094;50.822;4.376;2023-03-01T04:38:52;18.75;;;11.50;;
23826;SDS011;12094;50.822;4.376;2023-03-01T04:41:22;18.35;;;11.55;;
23826;SDS011;12094;50.822;4.376;2023-03-01T04:43:53;19.60;;;11.20;;
23826;SDS011;12094;50.822;4.376;2023-03-01T04:46:20;18.90;;;11.30;;
23826;SDS011;12094;50.822;4.376;2023-03-01T04:48:55;20.92;;;11.20;;
23826;SDS011;12094;50.822;4.376;2023-03-01T04:51:22;19.20;;;11.32;;
23826;SDS011;12094;50.822;4.376;2023-03-01T04:53:51;16.38;;;10.85;;
23826;SDS011;12094;50.822;4.376;2023-03-01T04:56:21;20.23;;;11.80;;
23826;SDS011;12094;50.822;4.376;2023-03-01T04:58:52;19.23;;;11.68;;
23826;SDS011;12094;50.822;4.376;2023-03-01T05:01:21;18.10;;;10.85;;
23826;SDS011;12094;50.822;4.376;2023-03-01T05:03:52;18.08;;;11.23;;
23826;SDS011;12094;50.822;4.376;2023-03-01T05:06:20;17.67;;;11.25;;
23826;SDS011;12094;50.822;4.376;2023-03-01T05:08:47;18.40;;;11.20;;
23826;SDS011;12094;50.822;4.376;2023-03-01T05:11:14;20.85;;;11.05;;
23826;SDS011;12094;50.822;4.376;2023-03-01T05:13:41;20.08;;;11.23;;
23826;SDS011;12094;50.822;4.376;2023-03-01T05:16:09;20.30;;;11.85;;
23826;SDS011;12094;50.822;4.376;2023-03-01T05:18:39;18.30;;;11.13;;
23826;SDS011;12094;50.822;4.376;2023-03-01T05:21:17;20.45;;;11.60;;
23826;SDS011;12094;50.822;4.376;2023-03-01T05:23:44;18.65;;;11.68;;
23826;SDS011;12094;50.822;4.376;2023-03-01T05:26:14;19.45;;;11.32;;
23826;SDS011;12094;50.822;4.376;2023-03-01T05:29:00;21.05;;;11.55;;
23826;SDS011;12094;50.822;4.376;2023-03-01T05:31:29;23.58;;;12.80;;
23826;SDS011;12094;50.822;4.376;2023-03-01T05:33:58;19.33;;;11.80;;
23826;SDS011;12094;50.822;4.376;2023-03-01T05:36:26;19.73;;;12.05;;
23826;SDS011;12094;50.822;4.376;2023-03-01T05:38:54;16.98;;;10.77;;
23826;SDS011;12094;50.822;4.376;2023-03-01T05:41:23;21.90;;;11.57;;
23826;SDS011;12094;50.822;4.376;2023-03-01T05:43:51;18.05;;;10.98;;
23826;SDS011;12094;50.822;4.376;2023-03-01T05:46:19;22.33;;;11.30;;
23826;SDS011;12094;50.822;4.376;2023-03-01T05:48:46;18.85;;;11.60;;
23826;SDS011;12094;50.822;4.376;2023-03-01T05:51:14;22.88;;;12.07;;
23826;SDS011;12094;50.822;4.376;2023-03-01T05:53:41;22.50;;;11.57;;
23826;SDS011;12094;50.822;4.376;2023-03-01T05:56:09;20.35;;;12.18;;
23826;SDS011;12094;50.822;4.376;2023-03-01T05:58:38;19.05;;;11.50;;
23826;SDS011;12094;50.822;4.376;2023-03-01T06:01:05;19.45;;;11.25;;
23826;SDS011;12094;50.822;4.376;2023-03-01T06:03:41;19.42;;;12.27;;
23826;SDS011;12094;50.822;4.376;2023-03-01T06:06:08;19.55;;;12.10;;
23826;SDS011;12094;50.822;4.376;2023-03-01T06:08:36;20.92;;;12.32;;
23826;SDS011;12094;50.822;4.376;2023-03-01T06:11:05;18.83;;;12.38;;
23826;SDS011;12094;50.822;4.376;2023-03-01T06:13:36;20.35;;;12.20;;
23826;SDS011;12094;50.822;4.376;2023-03-01T06:16:11;19.40;;;12.05;;
23826;SDS011;12094;50.822;4.376;2023-03-01T06:21:12;21.35;;;12.38;;
23826;SDS011;12094;50.822;4.376;2023-03-01T06:23:40;22.67;;;12.32;;
23826;SDS011;12094;50.822;4.376;2023-03-01T06:26:09;19.65;;;11.68;;
23826;SDS011;12094;50.822;4.376;2023-03-01T06:28:35;19.33;;;11.85;;
23826;SDS011;12094;50.822;4.376;2023-03-01T06:31:03;18.45;;;11.38;;
23826;SDS011;12094;50.822;4.376;2023-03-01T06:33:31;24.50;;;13.63;;
23826;SDS011;12094;50.822;4.376;2023-03-01T06:35:58;25.27;;;13.02;;
23826;SDS011;12094;50.822;4.376;2023-03-01T06:38:25;22.83;;;11.75;;
23826;SDS011;12094;50.822;4.376;2023-03-01T06:40:53;26.23;;;12.45;;
23826;SDS011;12094;50.822;4.376;2023-03-01T06:43:21;30.20;;;12.18;;
23826;SDS011;12094;50.822;4.376;2023-03-01T06:45:51;19.65;;;12.20;;
23826;SDS011;12094;50.822;4.376;2023-03-01T06:48:18;23.20;;;12.38;;
23826;SDS011;12094;50.822;4.376;2023-03-01T06:50:47;21.58;;;12.93;;
23826;SDS011;12094;50.822;4.376;2023-03-01T06:53:16;30.05;;;12.38;;
23826;SDS011;12094;50.822;4.376;2023-03-01T06:55:45;23.00;;;12.43;;
23826;SDS011;12094;50.822;4.376;2023-03-01T06:58:13;25.15;;;11.60;;
23826;SDS011;12094;50.822;4.376;2023-03-01T07:00:40;19.48;;;12.48;;
23826;SDS011;12094;50.822;4.376;2023-03-01T07:03:09;21.70;;;12.05;;
23826;SDS011;12094;50.822;4.376;2023-03-01T07:05:37;29.80;;;12.27;;
23826;SDS011;12094;50.822;4.376;2023-03-01T07:08:06;26.70;;;12.55;;
23826;SDS011;12094;50.822;4.376;2023-03-01T07:20:43;21.60;;;12.07;;
23826;SDS011;12094;50.822;4.376;2023-03-01T07:23:29;24.70;;;12.60;;
23826;SDS011;12094;50.822;4.376;2023-03-01T07:25:59;20.48;;;12.13;;
23826;SDS011;12094;50.822;4.376;2023-03-01T07:28:28;18.98;;;12.13;;
23826;SDS011;12094;50.822;4.376;2023-03-01T07:31:02;26.27;;;13.52;;
23826;SDS011;12094;50.822;4.376;2023-03-01T07:33:31;20.65;;;12.68;;
23826;SDS011;12094;50.822;4.376;2023-03-01T07:36:03;23.15;;;11.93;;
23826;SDS011;12094;50.822;4.376;2023-03-01T07:38:33;23.38;;;12.90;;
23826;SDS011;12094;50.822;4.376;2023-03-01T07:41:01;23.15;;;13.43;;
23826;SDS011;12094;50.822;4.376;2023-03-01T07:43:41;22.95;;;12.23;;
23826;SDS011;12094;50.822;4.376;2023-03-01T07:48:50;20.92;;;12.50;;
23826;SDS011;12094;50.822;4.376;2023-03-01T07:51:18;20.92;;;13.13;;
23826;SDS011;12094;50.822;4.376;2023-03-01T07:53:49;23.40;;;13.23;;
23826;SDS011;12094;50.822;4.376;2023-03-01T07:56:16;26.60;;;13.40;;
23826;SDS011;12094;50.822;4.376;2023-03-01T07:58:46;21.67;;;12.48;;
23826;SDS011;12094;50.822;4.376;2023-03-01T08:01:17;24.95;;;13.80;;
23826;SDS011;12094;50.822;4.376;2023-03-01T08:03:50;22.33;;;12.80;;
23826;SDS011;12094;50.822;4.376;2023-03-01T08:06:18;20.73;;;12.98;;
23826;SDS011;12094;50.822;4.376;2023-03-01T08:08:45;26.00;;;13.82;;
23826;SDS011;12094;50.822;4.376;2023-03-01T08:11:13;27.25;;;13.63;;
23826;SDS011;12094;50.822;4.376;2023-03-01T08:13:42;26.27;;;12.93;;
23826;SDS011;12094;50.822;4.376;2023-03-01T08:16:11;26.33;;;12.90;;
23826;SDS011;12094;50.822;4.376;2023-03-01T08:18:39;31.55;;;13.68;;
23826;SDS011;12094;50.822;4.376;2023-03-01T08:21:12;21.25;;;13.73;;
23826;SDS011;12094;50.822;4.376;2023-03-01T08:23:41;23.92;;;13.38;;
23826;SDS011;12094;50.822;4.376;2023-03-01T08:26:16;22.23;;;12.85;;
23826;SDS011;12094;50.822;4.376;2023-03-01T08:28:49;26.40;;;14.13;;
23826;SDS011;12094;50.822;4.376;2023-03-01T08:31:19;24.10;;;12.55;;
23826;SDS011;12094;50.822;4.376;2023-03-01T08:33:57;29.27;;;12.85;;
23826;SDS011;12094;50.822;4.376;2023-03-01T08:36:27;24.40;;;13.38;;
23826;SDS011;12094;50.822;4.376;2023-03-01T08:38:57;20.17;;;12.93;;
23826;SDS011;12094;50.822;4.376;2023-03-01T08:41:27;23.27;;;13.68;;
23826;SDS011;12094;50.822;4.376;2023-03-01T08:43:55;20.98;;;12.98;;
23826;SDS011;12094;50.822;4.376;2023-03-01T08:46:26;21.75;;;13.00;;
23826;SDS011;12094;50.822;4.376;2023-03-01T08:48:55;20.00;;;12.20;;
23826;SDS011;12094;50.822;4.376;2023-03-01T08:51:23;21.48;;;13.07;;
23826;SDS011;12094;50.822;4.376;2023-03-01T08:53:54;25.67;;;13.68;;
23826;SDS011;12094;50.822;4.376;2023-03-01T08:56:21;21.25;;;12.50;;
23826;SDS011;12094;50.822;4.376;2023-03-01T08:58:55;23.20;;;13.43;;
23826;SDS011;12094;50.822;4.376;2023-03-01T09:01:31;27.60;;;14.43;;
23826;SDS011;12094;50.822;4.376;2023-03-01T09:04:03;30.55;;;13.52;;
23826;SDS011;12094;50.822;4.376;2023-03-01T09:06:38;23.50;;;13.75;;
23826;SDS011;12094;50.822;4.376;2023-03-01T09:09:19;23.88;;;12.82;;
23826;SDS011;12094;50.822;4.376;2023-03-01T09:20:41;24.15;;;14.13;;
23826;SDS011;12094;50.822;4.376;2023-03-01T09:23:09;24.52;;;13.50;;
23826;SDS011;12094;50.822;4.376;2023-03-01T09:25:39;21.33;;;13.23;;
23826;SDS011;12094;50.822;4.376;2023-03-01T09:28:09;31.48;;;13.60;;
23826;SDS011;12094;50.822;4.376;2023-03-01T09:30:59;22.95;;;13.30;;
23826;SDS011;12094;50.822;4.376;2023-03-01T09:33:31;28.70;;;14.35;;
23826;SDS011;12094;50.822;4.376;2023-03-01T09:36:00;25.35;;;13.38;;
23826;SDS011;12094;50.822;4.376;2023-03-01T09:38:30;24.77;;;13.65;;
23826;SDS011;12094;50.822;4.376;2023-03-01T09:40:59;25.63;;;13.57;;
23826;SDS011;12094;50.822;4.376;2023-03-01T09:46:14;24.10;;;13.85;;
23826;SDS011;12094;50.822;4.376;2023-03-01T09:51:26;24.02;;;14.85;;
23826;SDS011;12094;50.822;4.376;2023-03-01T09:54:03;22.17;;;13.48;;
23826;SDS011;12094;50.822;4.376;2023-03-01T09:56:34;26.27;;;14.02;;
23826;SDS011;12094;50.822;4.376;2023-03-01T10:02:35;24.77;;;13.98;;
23826;SDS011;12094;50.822;4.376;2023-03-01T10:11:03;27.20;;;14.50;;
23826;SDS011;12094;50.822;4.376;2023-03-01T10:16:21;25.80;;;14.30;;
23826;SDS011;12094;50.822;4.376;2023-03-01T10:18:58;23.40;;;15.20;;
23826;SDS011;12094;50.822;4.376;2023-03-01T10:21:45;25.13;;;15.38;;
23826;SDS011;12094;50.822;4.376;2023-03-01T10:24:18;24.58;;;14.00;;
23826;SDS011;12094;50.822;4.376;2023-03-01T10:26:51;31.88;;;15.70;;
23826;SDS011;12094;50.822;4.376;2023-03-01T10:29:53;30.52;;;14.20;;
23826;SDS011;12094;50.822;4.376;2023-03-01T10:35:39;28.27;;;13.80;;
23826;SDS011;12094;50.822;4.376;2023-03-01T10:38:11;28.63;;;13.40;;
23826;SDS011;12094;50.822;4.376;2023-03-01T10:40:55;33.85;;;13.82;;
23826;SDS011;12094;50.822;4.376;2023-03-01T10:43:32;22.60;;;13.60;;
23826;SDS011;12094;50.822;4.376;2023-03-01T10:49:17;26.08;;;12.55;;
23826;SDS011;12094;50.822;4.376;2023-03-01T10:51:51;23.02;;;12.95;;
23826;SDS011;12094;50.822;4.376;2023-03-01T10:57:36;22.27;;;13.05;;
23826;SDS011;12094;50.822;4.376;2023-03-01T11:08:56;22.17;;;12.32;;
23826;SDS011;12094;50.822;4.376;2023-03-01T11:11:54;20.67;;;12.55;;
23826;SDS011;12094;50.822;4.376;2023-03-01T11:14:26;26.40;;;12.75;;
23826;SDS011;12094;50.822;4.376;2023-03-01T11:27:41;19.88;;;11.60;;
23826;SDS011;12094;50.822;4.376;2023-03-01T11:30:29;19.15;;;11.07;;
23826;SDS011;12094;50.822;4.376;2023-03-01T11:38:51;17.95;;;12.20;;
23826;SDS011;12094;50.822;4.376;2023-03-01T11:41:26;17.30;;;12.43;;
23826;SDS011;12094;50.822;4.376;2023-03-01T11:50:04;14.60;;;10.65;;
23826;SDS011;12094;50.822;4.376;2023-03-01T12:05:07;18.27;;;10.50;;
23826;SDS011;12094;50.822;4.376;2023-03-01T12:11:14;14.25;;;10.20;;
23826;SDS011;12094;50.822;4.376;2023-03-01T12:21:06;20.50;;;10.85;;
23826;SDS011;12094;50.822;4.376;2023-03-01T12:29:07;17.42;;;10.52;;
23826;SDS011;12094;50.822;4.376;2023-03-01T12:49:11;14.15;;;10.02;;
23826;SDS011;12094;50.822;4.376;2023-03-01T12:51:51;15.30;;;9.82;;
23826;SDS011;12094;50.822;4.376;2023-03-01T12:54:29;15.15;;;9.77;;
23826;SDS011;12094;50.822;4.376;2023-03-01T13:01:00;16.45;;;10.60;;
23826;SDS011;12094;50.822;4.376;2023-03-01T13:15:25;16.70;;;10.68;;
23826;SDS011;12094;50.822;4.376;2023-03-01T13:20:51;17.00;;;10.77;;
23826;SDS011;12094;50.822;4.376;2023-03-01T13:31:08;18.20;;;10.50;;
23826;SDS011;12094;50.822;4.376;2023-03-01T13:33:44;13.75;;;9.68;;
23826;SDS011;12094;50.822;4.376;2023-03-01T13:39:04;16.45;;;10.40;;
23826;SDS011;12094;50.822;4.376;2023-03-01T13:41:54;18.13;;;11.05;;
23826;SDS011;12094;50.822;4.376;2023-03-01T13:44:26;15.57;;;8.90;;
23826;SDS011;12094;50.822;4.376;2023-03-01T13:46:59;18.20;;;11.13;;
23826;SDS011;12094;50.822;4.376;2023-03-01T13:49:53;22.35;;;11.45;;
23826;SDS011;12094;50.822;4.376;2023-03-01T13:58:31;18.23;;;10.48;;
23826;SDS011;12094;50.822;4.376;2023-03-01T14:01:51;19.50;;;10.75;;
23826;SDS011;12094;50.822;4.376;2023-03-01T14:04:25;16.88;;;9.98;;
23826;SDS011;12094;50.822;4.376;2023-03-01T14:10:02;20.20;;;11.35;;
23826;SDS011;12094;50.822;4.376;2023-03-01T14:12:52;19.00;;;11.23;;
23826;SDS011;12094;50.822;4.376;2023-03-01T14:15:50;15.98;;;10.57;;
23826;SDS011;12094;50.822;4.376;2023-03-01T14:31:48;17.85;;;10.55;;
23826;SDS011;12094;50.822;4.376;2023-03-01T14:34:28;17.52;;;10.65;;
23826;SDS011;12094;50.822;4.376;2023-03-01T14:37:18;17.98;;;10.40;;
23826;SDS011;12094;50.822;4.376;2023-03-01T14:40:19;16.92;;;10.85;;
23826;SDS011;12094;50.822;4.376;2023-03-01T14:43:09;17.65;;;11.15;;
23826;SDS011;12094;50.822;4.376;2023-03-01T14:45:54;18.88;;;11.73;;
23826;SDS011;12094;50.822;4.376;2023-03-01T14:48:28;22.35;;;13.00;;
23826;SDS011;12094;50.822;4.376;2023-03-01T14:53:46;17.00;;;10.68;;
23826;SDS011;12094;50.822;4.376;2023-03-01T14:56:18;21.30;;;10.95;;
23826;SDS011;12094;50.822;4.376;2023-03-01T14:58:53;22.00;;;11.85;;
23826;SDS011;12094;50.822;4.376;2023-03-01T15:01:41;21.35;;;11.65;;
23826;SDS011;12094;50.822;4.376;2023-03-01T15:04:18;18.67;;;11.43;;
23826;SDS011;12094;50.822;4.376;2023-03-01T15:06:54;22.73;;;10.75;;
23826;SDS011;12094;50.822;4.376;2023-03-01T15:09:32;17.65;;;10.63;;
23826;SDS011;12094;50.822;4.376;2023-03-01T15:14:58;22.45;;;12.07;;
23826;SDS011;12094;50.822;4.376;2023-03-01T15:17:42;18.52;;;10.70;;
23826;SDS011;12094;50.822;4.376;2023-03-01T15:23:04;21.77;;;11.57;;
23826;SDS011;12094;50.822;4.376;2023-03-01T15:34:31;18.23;;;11.23;;
23826;SDS011;12094;50.822;4.376;2023-03-01T15:37:01;20.95;;;11.73;;
23826;SDS011;12094;50.822;4.376;2023-03-01T15:40:29;21.20;;;11.60;;
23826;SDS011;12094;50.822;4.376;2023-03-01T15:43:36;19.13;;;11.52;;
23826;SDS011;12094;50.822;4.376;2023-03-01T15:46:31;17.45;;;11.45;;
23826;SDS011;12094;50.822;4.376;2023-03-01T15:49:39;16.75;;;11.00;;
23826;SDS011;12094;50.822;4.376;2023-03-01T15:52:35;20.63;;;11.30;;
23826;SDS011;12094;50.822;4.376;2023-03-01T15:55:30;18.38;;;11.95;;
23826;SDS011;12094;50.822;4.376;2023-03-01T16:00:28;16.13;;;10.73;;
23826;SDS011;12094;50.822;4.376;2023-03-01T16:02:59;18.85;;;11.25;;
23826;SDS011;12094;50.822;4.376;2023-03-01T16:08:20;20.50;;;10.93;;
23826;SDS011;12094;50.822;4.376;2023-03-01T16:13:26;19.90;;;10.63;;
23826;SDS011;12094;50.822;4.376;2023-03-01T16:26:42;15.80;;;9.10;;
23826;SDS011;12094;50.822;4.376;2023-03-01T16:29:10;15.38;;;9.43;;
23826;SDS011;12094;50.822;4.376;2023-03-01T16:31:54;15.98;;;8.82;;
23826;SDS011;12094;50.822;4.376;2023-03-01T16:37:54;15.40;;;9.68;;
23826;SDS011;12094;50.822;4.376;2023-03-01T16:40:49;15.32;;;9.77;;
23826;SDS011;12094;50.822;4.376;2023-03-01T16:43:29;16.10;;;9.82;;
23826;SDS011;12094;50.822;4.376;2023-03-01T16:46:21;25.35;;;11.60;;
23826;SDS011;12094;50.822;4.376;2023-03-01T16:49:08;18.20;;;10.07;;
23826;SDS011;12094;50.822;4.376;2023-03-01T16:51:54;19.13;;;9.63;;
23826;SDS011;12094;50.822;4.376;2023-03-01T16:54:42;18.17;;;9.98;;
23826;SDS011;12094;50.822;4.376;2023-03-01T16:57:12;20.23;;;10.43;;
23826;SDS011;12094;50.822;4.376;2023-03-01T16:59:40;15.68;;;9.45;;
23826;SDS011;12094;50.822;4.376;2023-03-01T17:02:27;21.13;;;10.20;;
23826;SDS011;12094;50.822;4.376;2023-03-01T17:05:18;16.13;;;9.75;;
23826;SDS011;12094;50.822;4.376;2023-03-01T17:10:52;17.17;;;9.65;;
23826;SDS011;12094;50.822;4.376;2023-03-01T17:13:36;19.38;;;10.23;;
23826;SDS011;12094;50.822;4.376;2023-03-01T17:16:21;20.15;;;10.70;;
23826;SDS011;12094;50.822;4.376;2023-03-01T17:19:02;20.90;;;10.18;;
23826;SDS011;12094;50.822;4.376;2023-03-01T17:21:36;23.05;;;9.95;;
23826;SDS011;12094;50.822;4.376;2023-03-01T17:24:27;20.30;;;10.02;;
23826;SDS011;12094;50.822;4.376;2023-03-01T17:27:47;16.38;;;10.45;;
23826;SDS011;12094;50.822;4.376;2023-03-01T17:30:24;20.75;;;11.48;;
23826;SDS011;12094;50.822;4.376;2023-03-01T17:33:12;18.23;;;10.45;;
23826;SDS011;12094;50.822;4.376;2023-03-01T17:35:46;20.10;;;10.93;;
23826;SDS011;12094;50.822;4.376;2023-03-01T17:38:20;14.88;;;9.88;;
23826;SDS011;12094;50.822;4.376;2023-03-01T17:43:31;17.15;;;10.52;;
23826;SDS011;12094;50.822;4.376;2023-03-01T17:46:07;18.77;;;9.88;;
23826;SDS011;12094;50.822;4.376;2023-03-01T17:49:04;15.68;;;10.10;;
23826;SDS011;12094;50.822;4.376;2023-03-01T17:54:19;19.88;;;10.85;;
23826;SDS011;12094;50.822;4.376;2023-03-01T17:57:03;31.88;;;15.20;;
23826;SDS011;12094;50.822;4.376;2023-03-01T17:59:38;22.30;;;12.20;;
23826;SDS011;12094;50.822;4.376;2023-03-01T18:02:14;21.45;;;10.77;;
23826;SDS011;12094;50.822;4.376;2023-03-01T18:04:43;20.25;;;11.73;;
23826;SDS011;12094;50.822;4.376;2023-03-01T18:07:11;25.52;;;10.70;;
23826;SDS011;12094;50.822;4.376;2023-03-01T18:09:39;18.13;;;10.85;;
23826;SDS011;12094;50.822;4.376;2023-03-01T18:12:16;20.42;;;10.90;;
23826;SDS011;12094;50.822;4.376;2023-03-01T18:15:04;18.48;;;10.38;;
23826;SDS011;12094;50.822;4.376;2023-03-01T18:18:35;19.83;;;10.43;;
23826;SDS011;12094;50.822;4.376;2023-03-01T18:21:06;20.65;;;10.32;;
23826;SDS011;12094;50.822;4.376;2023-03-01T18:24:03;16.67;;;10.40;;
23826;SDS011;12094;50.822;4.376;2023-03-01T18:27:19;17.52;;;10.63;;
23826;SDS011;12094;50.822;4.376;2023-03-01T18:31:12;22.30;;;10.70;;
23826;SDS011;12094;50.822;4.376;2023-03-01T18:35:00;18.38;;;10.32;;
23826;SDS011;12094;50.822;4.376;2023-03-01T18:37:33;15.93;;;9.63;;
23826;SDS011;12094;50.822;4.376;2023-03-01T18:40:01;17.92;;;11.13;;
23826;SDS011;12094;50.822;4.376;2023-03-01T18:42:30;21.83;;;10.50;;
23826;SDS011;12094;50.822;4.376;2023-03-01T18:44:57;19.75;;;10.45;;
23826;SDS011;12094;50.822;4.376;2023-03-01T18:47:25;18.30;;;10.30;;
23826;SDS011;12094;50.822;4.376;2023-03-01T18:49:53;22.67;;;9.85;;
23826;SDS011;12094;50.822;4.376;2023-03-01T18:52:21;20.38;;;10.80;;
23826;SDS011;12094;50.822;4.376;2023-03-01T18:54:50;17.00;;;10.98;;
23826;SDS011;12094;50.822;4.376;2023-03-01T18:57:19;18.38;;;11.18;;
23826;SDS011;12094;50.822;4.376;2023-03-01T18:59:46;19.65;;;11.18;;
23826;SDS011;12094;50.822;4.376;2023-03-01T19:02:13;19.00;;;10.70;;
23826;SDS011;12094;50.822;4.376;2023-03-01T19:04:48;25.75;;;13.02;;
23826;SDS011;12094;50.822;4.376;2023-03-01T19:07:15;20.38;;;10.63;;
23826;SDS011;12094;50.822;4.376;2023-03-01T19:09:43;21.45;;;11.60;;
23826;SDS011;12094;50.822;4.376;2023-03-01T19:12:10;26.45;;;13.50;;
23826;SDS011;12094;50.822;4.376;2023-03-01T19:14:38;19.08;;;11.68;;